Time;durP1;ratioP1;P1;durP2;ratioP2;P2;SDS_P1;SDS_P2;PMS_P1;PMS_P2;Temp;Humidity;BMP_temperature;BMP_pressure;BME280_temperature;BME280_humidity;BME280_pressure;Samples;Min_cycle;Max_cycle;Signal;HPM_P1;HPM_P2
2022/02/14 00:00:09;;;;;;;12.93;7.20;;;;;;;;;;5024901;28;20029;-80
2022/02/14 00:02:35;;;;;;;12.80;7.50;;;;;;;;;;5041487;28;20029;-81
2022/02/14 00:05:03;;;;;;;12.90;7.13;;;;;;;;;;5040562;28;20021;-81
2022/02/14 00:07:29;;;;;;;13.05;7.10;;;;;;;;;;5059096;28;20072;-80
2022/02/14 00:09:55;;;;;;;10.23;6.53;;;;;;;;;;5060002;28;20063;-81
2022/02/14 00:12:21;;;;;;;14.43;7.93;;;;;;;;;;5039870;28;20090;-81
2022/02/14 00:14:47;;;;;;;12.02;7.68;;;;;;;;;;5039918;28;20056;-81
2022/02/14 00:17:13;;;;;;;12.73;7.50;;;;;;;;;;5040676;28;20447;-80
2022/02/14 00:19:39;;;;;;;12.73;7.88;;;;;;;;;;5059056;28;20103;-80
2022/02/14 00:22:05;;;;;;;12.82;8.18;;;;;;;;;;5041339;28;20051;-80
2022/02/14 00:24:31;;;;;;;11.15;6.93;;;;;;;;;;5023326;28;20052;-80
2022/02/14 00:26:57;;;;;;;12.55;7.28;;;;;;;;;;5023213;28;20029;-81
2022/02/14 00:29:23;;;;;;;13.02;8.27;;;;;;;;;;5059989;28;20025;-81
2022/02/14 00:31:50;;;;;;;13.15;7.55;;;;;;;;;;5041901;28;20292;-81
2022/02/14 00:34:16;;;;;;;11.63;7.32;;;;;;;;;;5058511;28;20029;-81
2022/02/14 00:36:43;;;;;;;13.23;7.20;;;;;;;;;;5041546;28;20074;-81
2022/02/14 00:39:10;;;;;;;11.15;7.28;;;;;;;;;;5039416;28;20048;-81
2022/02/14 00:41:36;;;;;;;14.23;7.97;;;;;;;;;;5051683;28;20487;-80
2022/02/14 00:44:02;;;;;;;12.30;7.13;;;;;;;;;;5032308;28;20036;-81
2022/02/14 00:46:28;;;;;;;13.15;8.10;;;;;;;;;;5058629;28;20025;-82
2022/02/14 00:48:54;;;;;;;10.55;6.72;;;;;;;;;;5058580;28;20059;-81
2022/02/14 00:51:20;;;;;;;13.15;7.45;;;;;;;;;;5058825;28;20029;-80
2022/02/14 00:53:46;;;;;;;11.07;7.38;;;;;;;;;;5044283;28;20028;-82
2022/02/14 00:56:12;;;;;;;14.90;7.60;;;;;;;;;;5041034;28;20021;-81
2022/02/14 00:58:38;;;;;;;14.18;7.45;;;;;;;;;;5058632;28;20118;-81
2022/02/14 01:01:04;;;;;;;16.65;8.48;;;;;;;;;;5040692;28;20104;-81
2022/02/14 01:03:30;;;;;;;13.63;8.13;;;;;;;;;;5039627;28;20405;-81
2022/02/14 01:05:56;;;;;;;13.02;7.75;;;;;;;;;;5058789;28;20025;-81
2022/02/14 01:08:22;;;;;;;12.35;6.57;;;;;;;;;;5040493;28;20389;-81
2022/02/14 01:10:48;;;;;;;13.10;7.25;;;;;;;;;;5041353;28;20488;-81
2022/02/14 01:13:14;;;;;;;12.85;7.10;;;;;;;;;;5045723;28;20037;-82
2022/02/14 01:15:40;;;;;;;16.17;7.80;;;;;;;;;;5041988;28;20032;-81
2022/02/14 01:18:06;;;;;;;13.00;7.57;;;;;;;;;;5041170;28;20028;-81
2022/02/14 01:20:32;;;;;;;12.38;7.20;;;;;;;;;;5040019;28;20480;-82
2022/02/14 01:22:58;;;;;;;14.18;7.80;;;;;;;;;;5057325;28;20112;-80
2022/02/14 01:25:24;;;;;;;12.32;7.38;;;;;;;;;;5028560;28;20022;-81
2022/02/14 01:27:50;;;;;;;13.07;7.45;;;;;;;;;;5021201;28;20103;-81
2022/02/14 01:30:16;;;;;;;12.02;7.05;;;;;;;;;;5020490;28;20524;-81
2022/02/14 01:32:42;;;;;;;11.98;6.53;;;;;;;;;;5032751;28;20037;-82
2022/02/14 01:35:09;;;;;;;12.02;7.57;;;;;;;;;;5038783;28;20023;-80
2022/02/14 01:37:38;;;;;;;11.07;7.05;;;;;;;;;;5038199;28;20663;-81
2022/02/14 01:40:05;;;;;;;10.30;6.28;;;;;;;;;;5021000;28;20493;-81
2022/02/14 01:42:30;;;;;;;13.18;7.25;;;;;;;;;;5054513;28;20037;-82
2022/02/14 01:44:56;;;;;;;12.35;7.10;;;;;;;;;;5058701;28;20032;-81
2022/02/14 01:47:26;;;;;;;11.70;6.60;;;;;;;;;;5032634;28;20056;-81
2022/02/14 01:49:52;;;;;;;13.18;7.35;;;;;;;;;;5028822;28;20079;-81
2022/02/14 01:52:19;;;;;;;10.98;6.55;;;;;;;;;;5028448;28;20041;-81
2022/02/14 01:54:49;;;;;;;12.00;7.05;;;;;;;;;;5040169;28;20087;-80
2022/02/14 01:57:16;;;;;;;11.27;7.93;;;;;;;;;;5055626;28;20029;-81
2022/02/14 01:59:43;;;;;;;13.65;7.95;;;;;;;;;;5047048;28;20052;-78
2022/02/14 02:02:09;;;;;;;12.45;6.72;;;;;;;;;;5071467;28;20036;-79
2022/02/14 02:04:35;;;;;;;12.90;6.65;;;;;;;;;;5073078;28;20047;-79
2022/02/14 02:07:02;;;;;;;12.48;7.65;;;;;;;;;;5055750;28;20021;-80
2022/02/14 02:09:28;;;;;;;10.70;7.07;;;;;;;;;;5050089;28;20058;-80
2022/02/14 02:14:39;;;;;;;10.25;6.10;;;;;;;;;;5064233;28;20032;-80
2022/02/14 02:17:05;;;;;;;13.32;7.40;;;;;;;;;;5037026;28;20048;-80
2022/02/14 02:19:31;;;;;;;10.43;6.53;;;;;;;;;;5020446;28;20035;-82
2022/02/14 02:21:57;;;;;;;14.23;7.25;;;;;;;;;;5037336;28;20068;-80
2022/02/14 02:24:24;;;;;;;12.00;7.00;;;;;;;;;;5037183;28;20025;-81
2022/02/14 02:26:57;;;;;;;11.85;7.93;;;;;;;;;;5039900;28;20404;-81
2022/02/14 02:29:23;;;;;;;13.85;7.75;;;;;;;;;;5049131;28;20097;-81
2022/02/14 02:31:50;;;;;;;13.38;7.93;;;;;;;;;;5021192;28;20065;-81
2022/02/14 02:34:16;;;;;;;12.60;7.72;;;;;;;;;;5058169;28;20043;-81
2022/02/14 02:36:52;;;;;;;14.32;7.07;;;;;;;;;;5028957;28;20112;-82
2022/02/14 02:39:19;;;;;;;11.95;6.82;;;;;;;;;;5021803;28;20045;-80
2022/02/14 02:41:45;;;;;;;16.95;7.38;;;;;;;;;;5033123;28;20029;-82
2022/02/14 02:44:12;;;;;;;12.38;6.95;;;;;;;;;;5052415;28;20025;-81
2022/02/14 02:46:38;;;;;;;11.20;7.18;;;;;;;;;;5039470;28;20040;-81
2022/02/14 02:49:15;;;;;;;12.85;8.00;;;;;;;;;;5039602;28;20048;-81
2022/02/14 02:51:42;;;;;;;13.02;7.18;;;;;;;;;;5040463;28;20499;-81
2022/02/14 02:54:08;;;;;;;14.80;8.05;;;;;;;;;;5040789;28;20025;-81
2022/02/14 02:56:35;;;;;;;11.75;7.20;;;;;;;;;;5033857;28;20029;-80
2022/02/14 02:59:01;;;;;;;13.35;7.53;;;;;;;;;;5061654;28;20038;-78
2022/02/14 03:01:28;;;;;;;13.98;8.57;;;;;;;;;;5060150;28;20021;-78
2022/02/14 03:03:54;;;;;;;13.90;7.72;;;;;;;;;;5054619;28;20025;-81
2022/02/14 03:06:21;;;;;;;12.55;7.97;;;;;;;;;;5065400;28;20048;-82
2022/02/14 03:08:49;;;;;;;13.05;7.90;;;;;;;;;;5061618;28;20298;-80
2022/02/14 03:11:15;;;;;;;13.38;8.30;;;;;;;;;;5075222;28;20487;-80
2022/02/14 03:13:41;;;;;;;14.23;9.32;;;;;;;;;;5057005;28;20049;-81
2022/02/14 03:16:07;;;;;;;14.82;8.20;;;;;;;;;;5047373;28;20030;-80
2022/02/14 03:18:34;;;;;;;17.20;9.45;;;;;;;;;;5046926;28;20033;-82
2022/02/14 03:21:00;;;;;;;14.43;9.35;;;;;;;;;;5048749;28;20027;-81
2022/02/14 03:23:27;;;;;;;14.30;8.32;;;;;;;;;;5047864;28;20048;-82
2022/02/14 03:25:53;;;;;;;15.00;9.30;;;;;;;;;;5035650;28;20025;-81
2022/02/14 03:28:19;;;;;;;13.00;8.18;;;;;;;;;;5028773;28;20026;-81
2022/02/14 03:30:45;;;;;;;15.00;8.65;;;;;;;;;;5052045;28;20031;-81
2022/02/14 03:33:11;;;;;;;13.80;8.85;;;;;;;;;;5048004;28;20485;-81
2022/02/14 03:35:37;;;;;;;18.27;8.98;;;;;;;;;;5040902;28;20029;-81
2022/02/14 03:38:06;;;;;;;14.57;9.15;;;;;;;;;;5048924;28;20033;-82
2022/02/14 03:40:32;;;;;;;16.05;9.52;;;;;;;;;;5049452;28;20051;-81
2022/02/14 03:42:58;;;;;;;17.13;9.18;;;;;;;;;;5048823;28;20131;-82
2022/02/14 03:45:24;;;;;;;15.82;9.90;;;;;;;;;;5047404;28;20528;-81
2022/02/14 03:47:50;;;;;;;15.32;9.20;;;;;;;;;;5048533;28;20066;-82
2022/02/14 03:50:16;;;;;;;14.43;9.63;;;;;;;;;;5065929;28;20024;-82
2022/02/14 03:52:42;;;;;;;14.68;10.13;;;;;;;;;;5065499;28;20029;-81
2022/02/14 03:55:09;;;;;;;12.60;8.93;;;;;;;;;;5047945;28;20067;-81
2022/02/14 03:57:35;;;;;;;15.60;10.00;;;;;;;;;;5049067;28;20033;-81
2022/02/14 04:00:01;;;;;;;16.58;10.52;;;;;;;;;;5048929;28;20539;-82
2022/02/14 04:02:27;;;;;;;16.42;9.77;;;;;;;;;;5065059;28;20442;-82
2022/02/14 04:04:55;;;;;;;18.45;10.52;;;;;;;;;;5029721;28;20026;-81
2022/02/14 04:07:21;;;;;;;15.48;9.68;;;;;;;;;;5045170;28;20026;-81
2022/02/14 04:09:48;;;;;;;16.15;9.52;;;;;;;;;;5024296;28;20027;-82
2022/02/14 04:12:14;;;;;;;18.00;9.52;;;;;;;;;;5041654;28;20025;-80
2022/02/14 04:14:40;;;;;;;15.45;9.68;;;;;;;;;;5059829;28;20036;-81
2022/02/14 04:17:06;;;;;;;17.35;10.98;;;;;;;;;;5043628;28;20032;-81
2022/02/14 04:19:32;;;;;;;19.70;10.48;;;;;;;;;;5046206;28;20806;-80
2022/02/14 04:21:58;;;;;;;17.25;9.95;;;;;;;;;;5044279;28;20029;-81
2022/02/14 04:24:24;;;;;;;15.32;10.63;;;;;;;;;;5038817;28;20030;-82
2022/02/14 04:26:50;;;;;;;19.02;10.77;;;;;;;;;;5041600;28;20021;-82
2022/02/14 04:29:16;;;;;;;16.25;10.18;;;;;;;;;;5044268;28;20099;-82
2022/02/14 04:31:42;;;;;;;15.82;9.93;;;;;;;;;;5062004;28;20029;-81
2022/02/14 04:34:08;;;;;;;18.98;11.27;;;;;;;;;;5043167;28;20506;-81
2022/02/14 04:36:34;;;;;;;18.63;11.75;;;;;;;;;;5043566;28;20028;-82
2022/02/14 04:39:00;;;;;;;16.48;10.65;;;;;;;;;;5042926;28;20138;-82
2022/02/14 04:41:26;;;;;;;18.08;11.00;;;;;;;;;;5043667;28;20036;-82
2022/02/14 04:43:52;;;;;;;19.67;11.43;;;;;;;;;;5045905;28;20055;-82
2022/02/14 04:46:19;;;;;;;18.88;10.15;;;;;;;;;;5026546;28;20037;-81
2022/02/14 04:48:45;;;;;;;18.25;11.30;;;;;;;;;;5042163;28;20028;-81
2022/02/14 04:51:11;;;;;;;17.50;11.23;;;;;;;;;;5042797;28;20021;-81
2022/02/14 04:53:38;;;;;;;18.10;10.98;;;;;;;;;;5042120;28;20067;-81
2022/02/14 04:56:04;;;;;;;17.77;10.15;;;;;;;;;;5042165;28;20092;-81
2022/02/14 04:58:30;;;;;;;19.23;11.35;;;;;;;;;;5043330;28;20036;-81
2022/02/14 05:00:56;;;;;;;21.27;11.32;;;;;;;;;;5042401;28;20502;-81
2022/02/14 05:03:22;;;;;;;18.33;10.90;;;;;;;;;;5060623;28;20669;-81
2022/02/14 05:05:48;;;;;;;19.58;11.55;;;;;;;;;;5041751;28;20032;-81
2022/02/14 05:08:14;;;;;;;19.52;10.82;;;;;;;;;;5060853;28;20025;-81
2022/02/14 05:10:40;;;;;;;20.45;11.90;;;;;;;;;;5042542;28;20649;-82
2022/02/14 05:13:06;;;;;;;19.73;11.00;;;;;;;;;;5041376;28;20022;-81
2022/02/14 05:15:32;;;;;;;20.38;11.18;;;;;;;;;;5042180;28;20029;-81
2022/02/14 05:17:58;;;;;;;17.58;12.23;;;;;;;;;;5059454;28;20032;-81
2022/02/14 05:20:24;;;;;;;18.52;11.00;;;;;;;;;;5036027;28;20052;-82
2022/02/14 05:22:50;;;;;;;21.83;12.60;;;;;;;;;;5034253;28;20032;-82
2022/02/14 05:25:16;;;;;;;22.92;12.10;;;;;;;;;;5035465;28;20506;-80
2022/02/14 05:27:43;;;;;;;21.23;14.32;;;;;;;;;;5031458;28;20342;-81
2022/02/14 05:30:09;;;;;;;31.83;15.02;;;;;;;;;;5056244;28;20021;-81
2022/02/14 05:32:35;;;;;;;20.55;12.48;;;;;;;;;;5046184;28;20476;-82
2022/02/14 05:35:01;;;;;;;20.33;11.65;;;;;;;;;;5046364;28;20043;-82
2022/02/14 05:37:28;;;;;;;23.98;12.63;;;;;;;;;;5051973;28;20031;-83
2022/02/14 05:39:54;;;;;;;24.05;13.07;;;;;;;;;;5039881;28;20029;-83
2022/02/14 05:42:20;;;;;;;20.27;12.30;;;;;;;;;;5050459;28;20029;-82
2022/02/14 05:44:46;;;;;;;20.40;11.85;;;;;;;;;;5039498;28;20033;-81
2022/02/14 05:47:12;;;;;;;21.52;12.80;;;;;;;;;;5027143;28;20034;-82
2022/02/14 05:49:38;;;;;;;20.70;13.32;;;;;;;;;;5012342;28;20113;-82
2022/02/14 05:52:05;;;;;;;22.55;13.18;;;;;;;;;;5016964;28;20026;-83
2022/02/14 05:54:31;;;;;;;19.23;12.52;;;;;;;;;;5015411;28;20539;-83
2022/02/14 05:56:58;;;;;;;20.58;11.63;;;;;;;;;;5018191;28;20481;-83
2022/02/14 05:59:24;;;;;;;21.10;12.45;;;;;;;;;;5015430;28;20025;-83
2022/02/14 06:01:50;;;;;;;22.80;13.00;;;;;;;;;;5016041;28;20038;-82
2022/02/14 06:04:16;;;;;;;23.65;14.02;;;;;;;;;;5015752;28;20037;-82
2022/02/14 06:06:42;;;;;;;27.05;14.45;;;;;;;;;;5015203;28;20034;-81
2022/02/14 06:09:08;;;;;;;23.25;12.98;;;;;;;;;;5016482;28;20112;-82
2022/02/14 06:11:34;;;;;;;22.08;13.43;;;;;;;;;;5015912;28;20026;-81
2022/02/14 06:14:00;;;;;;;24.20;15.05;;;;;;;;;;5016361;28;20029;-82
2022/02/14 06:16:27;;;;;;;24.55;13.95;;;;;;;;;;5012955;28;20018;-81
2022/02/14 06:18:53;;;;;;;23.42;14.07;;;;;;;;;;5014140;28;20018;-82
2022/02/14 06:21:19;;;;;;;27.77;13.48;;;;;;;;;;5015287;28;20029;-81
2022/02/14 06:23:45;;;;;;;20.05;12.98;;;;;;;;;;5013909;28;20022;-81
2022/02/14 06:26:11;;;;;;;22.90;13.02;;;;;;;;;;5012118;28;20021;-82
2022/02/14 06:28:40;;;;;;;21.20;13.00;;;;;;;;;;5011073;28;20033;-81
2022/02/14 06:31:07;;;;;;;24.17;14.57;;;;;;;;;;5012523;28;20536;-79
2022/02/14 06:33:33;;;;;;;25.75;15.05;;;;;;;;;;5013345;28;20047;-81
2022/02/14 06:35:59;;;;;;;21.23;12.82;;;;;;;;;;5013176;28;20081;-81
2022/02/14 06:38:25;;;;;;;29.42;14.07;;;;;;;;;;5013518;28;20048;-81
2022/02/14 06:40:51;;;;;;;23.73;14.52;;;;;;;;;;5011212;28;20030;-81
2022/02/14 06:43:17;;;;;;;27.73;14.32;;;;;;;;;;5013479;28;20087;-80
2022/02/14 06:45:43;;;;;;;22.40;14.95;;;;;;;;;;5012974;28;20070;-81
2022/02/14 06:48:09;;;;;;;22.73;12.63;;;;;;;;;;5031403;28;20033;-81
2022/02/14 06:50:35;;;;;;;22.95;13.85;;;;;;;;;;5041740;28;20036;-80
2022/02/14 06:53:01;;;;;;;26.10;15.40;;;;;;;;;;5042551;28;20461;-81
2022/02/14 06:55:27;;;;;;;27.52;15.20;;;;;;;;;;5031324;28;20059;-80
2022/02/14 06:57:53;;;;;;;30.58;15.32;;;;;;;;;;5036620;28;20086;-81
2022/02/14 07:00:20;;;;;;;24.23;14.98;;;;;;;;;;5039539;28;20035;-81
2022/02/14 07:02:46;;;;;;;26.45;15.75;;;;;;;;;;5038374;28;20029;-82
2022/02/14 07:05:14;;;;;;;23.40;14.27;;;;;;;;;;5038241;28;20385;-82
2022/02/14 07:07:40;;;;;;;25.77;14.82;;;;;;;;;;5038010;28;20029;-81
2022/02/14 07:10:07;;;;;;;22.63;14.20;;;;;;;;;;5056196;28;20040;-82
2022/02/14 07:12:33;;;;;;;25.70;14.88;;;;;;;;;;5037878;28;20029;-82
2022/02/14 07:14:59;;;;;;;30.23;15.70;;;;;;;;;;5038230;28;20028;-82
2022/02/14 07:17:25;;;;;;;24.85;15.02;;;;;;;;;;5055983;28;20082;-82
2022/02/14 07:19:51;;;;;;;21.25;12.73;;;;;;;;;;5038554;28;20112;-82
2022/02/14 07:22:17;;;;;;;22.48;14.57;;;;;;;;;;5037805;28;20110;-82
2022/02/14 07:24:43;;;;;;;21.77;13.48;;;;;;;;;;5038254;28;20475;-82
2022/02/14 07:27:09;;;;;;;20.55;13.82;;;;;;;;;;5032493;28;20511;-80
2022/02/14 07:29:35;;;;;;;22.90;14.27;;;;;;;;;;5019398;28;20022;-81
2022/02/14 07:32:01;;;;;;;19.88;13.60;;;;;;;;;;5019422;28;20032;-82
2022/02/14 07:34:27;;;;;;;22.17;14.05;;;;;;;;;;5036367;28;20021;-81
2022/02/14 07:36:53;;;;;;;23.60;15.00;;;;;;;;;;5028821;28;20123;-81
2022/02/14 07:39:20;;;;;;;24.08;14.32;;;;;;;;;;5038030;28;20029;-81
2022/02/14 07:41:48;;;;;;;20.95;14.40;;;;;;;;;;5038361;28;20052;-82
2022/02/14 07:44:14;;;;;;;21.98;14.02;;;;;;;;;;5037675;28;20402;-82
2022/02/14 07:46:40;;;;;;;20.77;13.50;;;;;;;;;;5060502;28;20029;-81
2022/02/14 07:49:06;;;;;;;19.58;12.32;;;;;;;;;;5041287;28;20450;-82
2022/02/14 07:51:32;;;;;;;23.75;14.80;;;;;;;;;;5041774;28;20291;-82
2022/02/14 07:53:58;;;;;;;19.33;14.43;;;;;;;;;;5042199;28;20450;-82
2022/02/14 07:56:24;;;;;;;18.60;13.20;;;;;;;;;;5041984;28;20029;-82
2022/02/14 07:58:50;;;;;;;21.45;14.68;;;;;;;;;;5042046;28;20497;-82
2022/02/14 08:01:17;;;;;;;23.58;14.50;;;;;;;;;;5059747;28;20094;-81
2022/02/14 08:03:44;;;;;;;22.20;14.95;;;;;;;;;;5042030;28;20086;-81
2022/02/14 08:06:10;;;;;;;21.45;15.13;;;;;;;;;;5041202;28;20025;-81
2022/02/14 08:08:36;;;;;;;20.55;14.00;;;;;;;;;;5059542;28;20035;-82
2022/02/14 08:11:02;;;;;;;22.35;13.70;;;;;;;;;;5059151;28;20013;-82
2022/02/14 08:13:28;;;;;;;18.88;13.63;;;;;;;;;;5043645;28;20029;-82
2022/02/14 08:15:54;;;;;;;23.65;14.95;;;;;;;;;;5045980;28;20048;-81
2022/02/14 08:18:21;;;;;;;22.95;14.52;;;;;;;;;;5041115;28;20029;-81
2022/02/14 08:20:47;;;;;;;20.58;14.25;;;;;;;;;;5059801;28;20434;-82
2022/02/14 08:23:13;;;;;;;19.40;14.35;;;;;;;;;;5040745;28;20059;-82
2022/02/14 08:25:39;;;;;;;20.30;14.60;;;;;;;;;;5040584;28;20056;-81
2022/02/14 08:28:05;;;;;;;22.63;14.60;;;;;;;;;;5059026;28;20025;-82
2022/02/14 08:30:32;;;;;;;21.77;14.07;;;;;;;;;;5040741;28;20554;-82
2022/02/14 08:32:58;;;;;;;20.77;13.90;;;;;;;;;;5058990;28;20116;-81
2022/02/14 08:35:24;;;;;;;23.10;14.63;;;;;;;;;;5040374;28;20552;-80
2022/02/14 08:37:52;;;;;;;20.60;13.85;;;;;;;;;;5058514;28;20048;-82
2022/02/14 08:40:19;;;;;;;20.60;15.38;;;;;;;;;;5042072;28;20044;-81
2022/02/14 08:42:45;;;;;;;20.92;14.30;;;;;;;;;;5058583;28;20385;-83
2022/02/14 08:45:11;;;;;;;23.25;14.88;;;;;;;;;;5057994;28;20081;-81
2022/02/14 08:47:40;;;;;;;21.08;15.00;;;;;;;;;;5042280;28;20049;-82
2022/02/14 08:50:06;;;;;;;20.20;15.38;;;;;;;;;;5042565;28;20025;-79
2022/02/14 08:52:32;;;;;;;20.50;14.23;;;;;;;;;;5040888;28;20025;-81
2022/02/14 08:54:58;;;;;;;21.38;14.80;;;;;;;;;;5040625;28;20029;-82
2022/02/14 08:57:26;;;;;;;21.65;14.60;;;;;;;;;;5041283;28;20686;-81
2022/02/14 08:59:52;;;;;;;19.75;14.23;;;;;;;;;;5041278;28;20024;-81
2022/02/14 09:02:18;;;;;;;25.48;15.48;;;;;;;;;;5041404;28;20112;-82
2022/02/14 09:04:44;;;;;;;19.77;14.48;;;;;;;;;;5058753;28;20090;-82
2022/02/14 09:07:10;;;;;;;22.20;14.07;;;;;;;;;;5041206;28;20017;-82
2022/02/14 09:09:36;;;;;;;22.52;15.65;;;;;;;;;;5058815;28;20025;-82
2022/02/14 09:12:02;;;;;;;21.75;14.75;;;;;;;;;;5040926;28;20344;-81
2022/02/14 09:14:30;;;;;;;20.80;14.88;;;;;;;;;;5041059;28;20644;-81
2022/02/14 09:16:56;;;;;;;21.13;14.38;;;;;;;;;;5058362;28;20051;-81
2022/02/14 09:19:22;;;;;;;19.77;14.05;;;;;;;;;;5040843;28;20504;-80
2022/02/14 09:21:48;;;;;;;23.65;15.32;;;;;;;;;;5041784;28;20120;-81
2022/02/14 09:24:14;;;;;;;19.85;13.57;;;;;;;;;;5041462;28;20081;-81
2022/02/14 09:26:41;;;;;;;20.35;14.27;;;;;;;;;;5058167;28;20017;-79
2022/02/14 09:29:08;;;;;;;23.13;14.60;;;;;;;;;;5042602;28;20032;-81
2022/02/14 09:31:35;;;;;;;18.52;13.65;;;;;;;;;;5057852;28;20063;-82
2022/02/14 09:34:01;;;;;;;20.60;13.90;;;;;;;;;;5040412;28;20033;-82
2022/02/14 09:36:28;;;;;;;19.92;14.20;;;;;;;;;;5040034;28;20021;-80
2022/02/14 09:38:54;;;;;;;20.17;13.93;;;;;;;;;;5058745;28;20021;-82
2022/02/14 09:41:21;;;;;;;22.65;16.38;;;;;;;;;;5058009;28;20017;-79
2022/02/14 09:43:47;;;;;;;22.83;16.15;;;;;;;;;;5044482;28;20033;-79
2022/02/14 09:46:14;;;;;;;22.20;14.73;;;;;;;;;;5043698;28;20017;-80
2022/02/14 09:48:42;;;;;;;23.85;14.38;;;;;;;;;;5060005;28;20041;-83
2022/02/14 09:51:08;;;;;;;20.58;13.95;;;;;;;;;;5043825;28;20009;-80
2022/02/14 09:53:35;;;;;;;20.20;14.73;;;;;;;;;;5041588;28;20032;-81
2022/02/14 09:56:01;;;;;;;23.25;14.55;;;;;;;;;;5058826;28;20108;-81
2022/02/14 09:58:27;;;;;;;22.98;15.27;;;;;;;;;;5059314;28;20033;-81
2022/02/14 10:00:54;;;;;;;19.98;13.63;;;;;;;;;;5039536;28;20044;-83
2022/02/14 10:03:22;;;;;;;18.85;15.10;;;;;;;;;;5040635;28;20032;-82
2022/02/14 10:05:49;;;;;;;20.55;14.20;;;;;;;;;;5041239;28;20028;-80
2022/02/14 10:08:26;;;;;;;18.80;13.88;;;;;;;;;;5047599;28;20021;-80
2022/02/14 10:10:54;;;;;;;19.95;14.57;;;;;;;;;;5021265;28;20040;-81
2022/02/14 10:13:30;;;;;;;18.73;13.57;;;;;;;;;;5022277;28;20032;-81
2022/02/14 10:15:56;;;;;;;21.48;14.27;;;;;;;;;;5047055;28;20025;-82
2022/02/14 10:18:25;;;;;;;21.10;14.35;;;;;;;;;;5040462;28;20498;-82
2022/02/14 10:20:51;;;;;;;21.58;14.38;;;;;;;;;;5040806;28;20035;-81
2022/02/14 10:23:17;;;;;;;21.98;15.00;;;;;;;;;;5042199;28;20112;-81
2022/02/14 10:25:44;;;;;;;19.05;14.30;;;;;;;;;;5060972;28;20023;-81
2022/02/14 10:28:16;;;;;;;21.00;15.38;;;;;;;;;;5058420;28;20151;-80
2022/02/14 10:30:59;;;;;;;21.50;15.68;;;;;;;;;;5043416;28;20115;-81
2022/02/14 10:33:44;;;;;;;20.67;14.40;;;;;;;;;;5059645;28;20029;-81
2022/02/14 10:36:10;;;;;;;21.48;14.68;;;;;;;;;;5058288;28;20029;-80
2022/02/14 10:38:39;;;;;;;22.65;15.85;;;;;;;;;;5054844;28;20031;-82
2022/02/14 10:41:14;;;;;;;20.98;14.50;;;;;;;;;;5023663;28;20033;-81
2022/02/14 10:43:41;;;;;;;19.90;13.68;;;;;;;;;;5019759;28;20559;-81
2022/02/14 10:46:07;;;;;;;20.30;15.63;;;;;;;;;;5019388;28;20021;-82
2022/02/14 10:48:39;;;;;;;20.88;15.73;;;;;;;;;;5029546;28;20084;-81
2022/02/14 10:51:06;;;;;;;19.88;14.05;;;;;;;;;;5056208;28;20048;-81
2022/02/14 10:53:52;;;;;;;20.10;14.82;;;;;;;;;;5055517;28;20032;-81
2022/02/14 10:56:18;;;;;;;20.55;15.57;;;;;;;;;;5055879;28;20021;-82
2022/02/14 10:58:46;;;;;;;22.27;15.55;;;;;;;;;;5056882;28;20112;-81
2022/02/14 11:01:12;;;;;;;23.85;15.60;;;;;;;;;;5038653;28;20606;-81
2022/02/14 11:03:39;;;;;;;20.20;15.02;;;;;;;;;;5056129;28;20032;-82
2022/02/14 11:06:06;;;;;;;21.00;14.88;;;;;;;;;;5038847;28;20025;-81
2022/02/14 11:08:34;;;;;;;20.60;14.75;;;;;;;;;;5037179;28;20074;-82
2022/02/14 11:11:02;;;;;;;20.65;15.65;;;;;;;;;;5039045;28;20045;-81
2022/02/14 11:13:32;;;;;;;22.73;15.98;;;;;;;;;;5033149;28;20033;-81
2022/02/14 11:16:02;;;;;;;21.67;15.95;;;;;;;;;;5039963;28;20068;-81
2022/02/14 11:18:31;;;;;;;21.70;16.27;;;;;;;;;;5048913;28;20570;-81
2022/02/14 11:20:59;;;;;;;24.40;15.00;;;;;;;;;;5069950;28;20020;-80
2022/02/14 11:23:27;;;;;;;21.73;17.10;;;;;;;;;;5063291;28;20028;-80
2022/02/14 11:26:29;;;;;;;20.33;15.65;;;;;;;;;;5042582;28;20017;-81
2022/02/14 11:29:01;;;;;;;21.67;15.27;;;;;;;;;;4978547;28;20025;-81
2022/02/14 11:31:30;;;;;;;22.23;16.52;;;;;;;;;;4964806;28;20042;-81
2022/02/14 11:33:59;;;;;;;21.67;16.35;;;;;;;;;;4981482;28;20187;-80
2022/02/14 11:36:26;;;;;;;21.45;15.73;;;;;;;;;;4980533;28;20038;-80
2022/02/14 11:38:53;;;;;;;22.77;16.67;;;;;;;;;;4964130;28;20027;-79
2022/02/14 11:41:39;;;;;;;22.75;14.82;;;;;;;;;;4983284;28;20023;-81
2022/02/14 11:44:11;;;;;;;20.55;14.48;;;;;;;;;;4957444;28;20042;-80
2022/02/14 11:46:40;;;;;;;19.67;13.95;;;;;;;;;;4966035;28;20130;-79
2022/02/14 11:49:07;;;;;;;19.73;14.10;;;;;;;;;;4961773;29;20054;-79
2022/02/14 11:51:37;;;;;;;22.80;15.52;;;;;;;;;;4976866;28;20019;-78
2022/02/14 11:54:04;;;;;;;23.23;15.18;;;;;;;;;;4995134;28;20062;-79
2022/02/14 11:56:32;;;;;;;18.60;13.88;;;;;;;;;;4994084;28;20043;-77
2022/02/14 11:58:57;;;;;;;15.88;12.02;;;;;;;;;;4980252;28;20038;-78
2022/02/14 12:01:24;;;;;;;17.15;14.15;;;;;;;;;;4957015;28;20094;-80
2022/02/14 12:03:56;;;;;;;20.33;14.63;;;;;;;;;;5031983;28;20043;-79
2022/02/14 12:06:22;;;;;;;20.35;12.27;;;;;;;;;;5041857;28;20075;-79
2022/02/14 12:08:58;;;;;;;16.80;12.60;;;;;;;;;;5038509;28;20455;-80
2022/02/14 12:11:43;;;;;;;21.40;13.55;;;;;;;;;;5044788;28;20028;-79
2022/02/14 12:14:16;;;;;;;17.38;12.93;;;;;;;;;;5039445;28;20025;-79
2022/02/14 12:22:30;;;;;;;;;;;;;;;;;;5059308;28;20039;-79
2022/02/14 12:24:57;;;;;;;17.23;10.95;;;;;;;;;;5058822;28;19995;-81
2022/02/14 12:27:23;;;;;;;16.55;12.02;;;;;;;;;;5072942;28;20017;-78
2022/02/14 12:29:50;;;;;;;16.65;11.70;;;;;;;;;;5073881;28;20033;-79
2022/02/14 12:32:17;;;;;;;15.88;11.13;;;;;;;;;;5074022;28;20045;-79
2022/02/14 12:34:44;;;;;;;17.35;11.95;;;;;;;;;;5057975;28;20093;-80
2022/02/14 12:37:12;;;;;;;17.98;12.20;;;;;;;;;;5041888;28;20588;-80
2022/02/14 12:39:49;;;;;;;18.05;12.52;;;;;;;;;;5057022;28;20033;-80
2022/02/14 12:42:24;;;;;;;17.77;12.23;;;;;;;;;;5038551;28;20029;-81
2022/02/14 12:44:51;;;;;;;15.93;11.02;;;;;;;;;;5041575;28;20041;-79
2022/02/14 12:47:18;;;;;;;20.27;11.20;;;;;;;;;;5040320;28;20460;-79
2022/02/14 12:49:59;;;;;;;13.65;10.63;;;;;;;;;;5041001;28;20021;-80
2022/02/14 12:52:26;;;;;;;14.82;10.43;;;;;;;;;;5038594;28;20021;-80
2022/02/14 12:54:56;;;;;;;15.88;10.73;;;;;;;;;;5037872;28;20030;-79
2022/02/14 12:57:41;;;;;;;14.27;10.43;;;;;;;;;;5040866;28;20083;-81
2022/02/14 13:00:25;;;;;;;14.93;10.48;;;;;;;;;;5050654;28;20025;-80
2022/02/14 13:02:52;;;;;;;14.63;10.55;;;;;;;;;;5019232;28;20048;-80
2022/02/14 13:05:18;;;;;;;14.77;11.07;;;;;;;;;;5037123;28;20108;-80
2022/02/14 13:07:44;;;;;;;12.90;10.60;;;;;;;;;;5048848;28;20465;-80
2022/02/14 13:10:10;;;;;;;18.40;11.68;;;;;;;;;;5035143;28;20116;-81
2022/02/14 13:12:36;;;;;;;14.48;10.52;;;;;;;;;;5045050;28;20103;-80
2022/02/14 13:15:06;;;;;;;15.80;11.30;;;;;;;;;;5063034;28;20103;-81
2022/02/14 13:17:32;;;;;;;14.25;9.75;;;;;;;;;;5038659;28;20032;-81
2022/02/14 13:19:59;;;;;;;13.50;9.40;;;;;;;;;;5037864;28;20028;-84
2022/02/14 13:22:27;;;;;;;13.88;10.10;;;;;;;;;;5053866;28;20024;-80
2022/02/14 13:24:55;;;;;;;15.93;9.38;;;;;;;;;;5038435;28;20159;-79
2022/02/14 13:27:24;;;;;;;14.25;10.15;;;;;;;;;;5057135;28;20029;-79
2022/02/14 13:29:52;;;;;;;14.80;10.60;;;;;;;;;;5017278;28;20175;-80
2022/02/14 13:32:19;;;;;;;13.70;9.35;;;;;;;;;;5021247;28;20492;-80
2022/02/14 13:35:05;;;;;;;13.23;9.20;;;;;;;;;;5053319;28;20114;-79
2022/02/14 13:37:38;;;;;;;13.65;9.05;;;;;;;;;;5050281;28;20021;-80
2022/02/14 13:40:21;;;;;;;13.60;8.80;;;;;;;;;;5057331;28;20029;-80
2022/02/14 13:42:47;;;;;;;12.63;9.55;;;;;;;;;;5055879;28;20036;-79
2022/02/14 13:45:14;;;;;;;14.50;10.15;;;;;;;;;;5056131;28;20032;-80
2022/02/14 13:47:40;;;;;;;16.52;10.50;;;;;;;;;;5055359;28;20045;-80
2022/02/14 13:50:22;;;;;;;15.13;10.50;;;;;;;;;;5038112;28;20029;-79
2022/02/14 13:52:48;;;;;;;13.35;9.50;;;;;;;;;;5055677;28;20249;-79
2022/02/14 13:55:21;;;;;;;16.85;10.60;;;;;;;;;;5053993;28;20029;-80
2022/02/14 13:57:48;;;;;;;15.90;10.55;;;;;;;;;;5054422;28;20021;-79
2022/02/14 14:00:31;;;;;;;13.10;9.18;;;;;;;;;;5036893;28;20128;-80
2022/02/14 14:02:58;;;;;;;12.98;9.95;;;;;;;;;;5055909;28;20037;-81
2022/02/14 14:05:24;;;;;;;12.98;9.70;;;;;;;;;;5055643;28;20018;-80
2022/02/14 14:07:50;;;;;;;16.20;9.45;;;;;;;;;;5035718;28;20118;-81
2022/02/14 14:10:18;;;;;;;11.85;8.40;;;;;;;;;;5038331;28;20029;-81
2022/02/14 14:12:48;;;;;;;17.55;10.63;;;;;;;;;;5055469;28;20040;-81
2022/02/14 14:15:14;;;;;;;17.13;10.13;;;;;;;;;;5037299;28;20511;-79
2022/02/14 14:17:40;;;;;;;12.80;8.85;;;;;;;;;;5053992;28;20029;-80
2022/02/14 14:20:07;;;;;;;15.98;9.93;;;;;;;;;;5055402;28;21086;-80
2022/02/14 14:22:34;;;;;;;13.93;8.85;;;;;;;;;;5057042;28;20023;-79
2022/02/14 14:25:01;;;;;;;15.68;10.43;;;;;;;;;;5055021;28;20013;-80
2022/02/14 14:27:27;;;;;;;13.75;9.57;;;;;;;;;;5037262;28;20029;-79
2022/02/14 14:29:53;;;;;;;14.75;9.63;;;;;;;;;;5037915;28;20025;-80